sensor_id;sensor_type;location;lat;lon;timestamp;P1;durP1;ratioP1;P2;durP2;ratioP2
16837;SDS011;19510;54.486;9.046;2024-03-25T00:00:54;10.68;;;1.60;;
16837;SDS011;19510;54.486;9.046;2024-03-25T00:03:20;6.18;;;1.80;;
16837;SDS011;19510;54.486;9.046;2024-03-25T00:05:46;3.95;;;2.20;;
16837;SDS011;19510;54.486;9.046;2024-03-25T00:08:11;3.90;;;1.10;;
16837;SDS011;19510;54.486;9.046;2024-03-25T00:10:37;6.88;;;1.40;;
16837;SDS011;19510;54.486;9.046;2024-03-25T00:13:03;3.70;;;1.33;;
16837;SDS011;19510;54.486;9.046;2024-03-25T00:15:29;10.82;;;1.63;;
16837;SDS011;19510;54.486;9.046;2024-03-25T00:17:55;7.82;;;1.65;;
16837;SDS011;19510;54.486;9.046;2024-03-25T00:20:21;6.53;;;1.40;;
16837;SDS011;19510;54.486;9.046;2024-03-25T00:22:46;5.18;;;1.50;;
16837;SDS011;19510;54.486;9.046;2024-03-25T00:25:12;5.32;;;1.88;;
16837;SDS011;19510;54.486;9.046;2024-03-25T00:27:38;3.45;;;1.20;;
16837;SDS011;19510;54.486;9.046;2024-03-25T00:30:04;8.30;;;1.90;;
16837;SDS011;19510;54.486;9.046;2024-03-25T00:32:30;5.00;;;1.53;;
16837;SDS011;19510;54.486;9.046;2024-03-25T00:34:56;6.30;;;1.67;;
16837;SDS011;19510;54.486;9.046;2024-03-25T00:37:22;6.75;;;1.58;;
16837;SDS011;19510;54.486;9.046;2024-03-25T00:39:49;4.00;;;1.27;;
16837;SDS011;19510;54.486;9.046;2024-03-25T00:42:14;8.00;;;1.53;;
16837;SDS011;19510;54.486;9.046;2024-03-25T00:44:40;2.33;;;1.17;;
16837;SDS011;19510;54.486;9.046;2024-03-25T00:47:06;3.50;;;1.35;;
16837;SDS011;19510;54.486;9.046;2024-03-25T00:49:32;7.40;;;1.58;;
16837;SDS011;19510;54.486;9.046;2024-03-25T00:51:57;2.28;;;1.25;;
16837;SDS011;19510;54.486;9.046;2024-03-25T00:54:23;3.67;;;1.57;;
16837;SDS011;19510;54.486;9.046;2024-03-25T00:56:49;5.03;;;1.00;;
16837;SDS011;19510;54.486;9.046;2024-03-25T00:59:16;6.20;;;1.00;;
16837;SDS011;19510;54.486;9.046;2024-03-25T01:01:42;2.77;;;1.57;;
16837;SDS011;19510;54.486;9.046;2024-03-25T01:04:08;4.43;;;1.00;;
16837;SDS011;19510;54.486;9.046;2024-03-25T01:06:33;7.13;;;1.08;;
16837;SDS011;19510;54.486;9.046;2024-03-25T01:08:59;3.25;;;1.20;;
16837;SDS011;19510;54.486;9.046;2024-03-25T01:11:25;3.67;;;1.30;;
16837;SDS011;19510;54.486;9.046;2024-03-25T01:13:51;4.65;;;0.93;;
16837;SDS011;19510;54.486;9.046;2024-03-25T01:16:16;3.50;;;0.98;;
16837;SDS011;19510;54.486;9.046;2024-03-25T01:18:42;5.50;;;1.10;;
16837;SDS011;19510;54.486;9.046;2024-03-25T01:21:08;3.30;;;1.25;;
16837;SDS011;19510;54.486;9.046;2024-03-25T01:23:33;4.60;;;1.63;;
16837;SDS011;19510;54.486;9.046;2024-03-25T01:25:59;4.43;;;1.05;;
16837;SDS011;19510;54.486;9.046;2024-03-25T01:28:25;4.05;;;1.08;;
16837;SDS011;19510;54.486;9.046;2024-03-25T01:30:51;3.10;;;1.20;;
16837;SDS011;19510;54.486;9.046;2024-03-25T01:33:17;1.98;;;1.20;;
16837;SDS011;19510;54.486;9.046;2024-03-25T01:35:42;2.97;;;1.25;;
16837;SDS011;19510;54.486;9.046;2024-03-25T01:38:08;3.42;;;1.00;;
16837;SDS011;19510;54.486;9.046;2024-03-25T01:40:34;1.55;;;0.90;;
16837;SDS011;19510;54.486;9.046;2024-03-25T01:43:01;7.05;;;1.30;;
16837;SDS011;19510;54.486;9.046;2024-03-25T01:45:29;2.90;;;0.90;;
16837;SDS011;19510;54.486;9.046;2024-03-25T01:47:59;1.88;;;0.95;;
16837;SDS011;19510;54.486;9.046;2024-03-25T01:50:33;4.55;;;1.13;;
16837;SDS011;19510;54.486;9.046;2024-03-25T01:53:01;3.60;;;1.17;;
16837;SDS011;19510;54.486;9.046;2024-03-25T01:55:28;3.88;;;1.10;;
16837;SDS011;19510;54.486;9.046;2024-03-25T01:57:55;9.75;;;1.25;;
16837;SDS011;19510;54.486;9.046;2024-03-25T02:00:22;2.60;;;0.90;;
16837;SDS011;19510;54.486;9.046;2024-03-25T02:02:50;3.92;;;1.15;;
16837;SDS011;19510;54.486;9.046;2024-03-25T02:05:17;5.25;;;1.45;;
16837;SDS011;19510;54.486;9.046;2024-03-25T02:07:45;1.23;;;1.00;;
16837;SDS011;19510;54.486;9.046;2024-03-25T02:10:12;3.92;;;1.02;;
16837;SDS011;19510;54.486;9.046;2024-03-25T02:12:44;3.90;;;1.13;;
16837;SDS011;19510;54.486;9.046;2024-03-25T02:15:11;1.87;;;0.80;;
16837;SDS011;19510;54.486;9.046;2024-03-25T02:17:41;1.73;;;0.97;;
16837;SDS011;19510;54.486;9.046;2024-03-25T02:20:07;2.67;;;1.10;;
16837;SDS011;19510;54.486;9.046;2024-03-25T02:22:33;3.38;;;1.45;;
16837;SDS011;19510;54.486;9.046;2024-03-25T02:25:06;1.52;;;1.00;;
16837;SDS011;19510;54.486;9.046;2024-03-25T02:27:36;2.92;;;0.85;;
16837;SDS011;19510;54.486;9.046;2024-03-25T02:30:05;3.47;;;1.07;;
16837;SDS011;19510;54.486;9.046;2024-03-25T02:32:33;2.88;;;0.90;;
16837;SDS011;19510;54.486;9.046;2024-03-25T02:34:59;2.42;;;0.85;;
16837;SDS011;19510;54.486;9.046;2024-03-25T02:37:28;4.25;;;1.00;;
16837;SDS011;19510;54.486;9.046;2024-03-25T02:39:55;2.67;;;1.10;;
16837;SDS011;19510;54.486;9.046;2024-03-25T02:42:24;2.03;;;0.90;;
16837;SDS011;19510;54.486;9.046;2024-03-25T02:44:54;1.60;;;0.70;;
16837;SDS011;19510;54.486;9.046;2024-03-25T02:47:21;6.30;;;1.15;;
16837;SDS011;19510;54.486;9.046;2024-03-25T02:49:47;3.15;;;1.00;;
16837;SDS011;19510;54.486;9.046;2024-03-25T02:52:13;2.25;;;1.02;;
16837;SDS011;19510;54.486;9.046;2024-03-25T02:54:39;1.33;;;0.73;;
16837;SDS011;19510;54.486;9.046;2024-03-25T02:57:05;2.38;;;0.90;;
16837;SDS011;19510;54.486;9.046;2024-03-25T02:59:31;5.75;;;1.15;;
16837;SDS011;19510;54.486;9.046;2024-03-25T03:01:56;2.63;;;0.70;;
16837;SDS011;19510;54.486;9.046;2024-03-25T03:04:22;2.75;;;0.70;;
16837;SDS011;19510;54.486;9.046;2024-03-25T03:06:50;2.05;;;0.77;;
16837;SDS011;19510;54.486;9.046;2024-03-25T03:09:16;3.38;;;0.75;;
16837;SDS011;19510;54.486;9.046;2024-03-25T03:11:42;1.83;;;0.93;;
16837;SDS011;19510;54.486;9.046;2024-03-25T03:14:08;2.63;;;0.80;;
16837;SDS011;19510;54.486;9.046;2024-03-25T03:16:34;2.97;;;0.82;;
16837;SDS011;19510;54.486;9.046;2024-03-25T03:19:00;3.88;;;0.77;;
16837;SDS011;19510;54.486;9.046;2024-03-25T03:21:26;2.28;;;1.10;;
16837;SDS011;19510;54.486;9.046;2024-03-25T03:23:52;3.05;;;0.80;;
16837;SDS011;19510;54.486;9.046;2024-03-25T03:26:17;2.35;;;0.95;;
16837;SDS011;19510;54.486;9.046;2024-03-25T03:28:43;6.80;;;1.10;;
16837;SDS011;19510;54.486;9.046;2024-03-25T03:31:09;3.45;;;1.67;;
16837;SDS011;19510;54.486;9.046;2024-03-25T03:33:34;3.78;;;0.70;;
16837;SDS011;19510;54.486;9.046;2024-03-25T03:36:00;4.47;;;0.93;;
16837;SDS011;19510;54.486;9.046;2024-03-25T03:38:29;1.80;;;0.97;;
16837;SDS011;19510;54.486;9.046;2024-03-25T03:40:58;7.10;;;1.20;;
16837;SDS011;19510;54.486;9.046;2024-03-25T03:43:25;5.20;;;1.13;;
16837;SDS011;19510;54.486;9.046;2024-03-25T03:45:51;2.88;;;1.02;;
16837;SDS011;19510;54.486;9.046;2024-03-25T03:48:17;3.00;;;1.40;;
16837;SDS011;19510;54.486;9.046;2024-03-25T03:50:43;6.40;;;1.10;;
16837;SDS011;19510;54.486;9.046;2024-03-25T03:53:09;3.33;;;0.95;;
16837;SDS011;19510;54.486;9.046;2024-03-25T03:55:35;2.33;;;0.85;;
16837;SDS011;19510;54.486;9.046;2024-03-25T03:58:01;2.78;;;1.52;;
16837;SDS011;19510;54.486;9.046;2024-03-25T04:00:27;6.53;;;1.23;;
16837;SDS011;19510;54.486;9.046;2024-03-25T04:02:52;9.77;;;3.05;;
16837;SDS011;19510;54.486;9.046;2024-03-25T04:05:18;9.53;;;1.90;;
16837;SDS011;19510;54.486;9.046;2024-03-25T04:07:44;4.55;;;1.90;;
16837;SDS011;19510;54.486;9.046;2024-03-25T04:10:10;5.03;;;1.27;;
16837;SDS011;19510;54.486;9.046;2024-03-25T04:12:36;10.63;;;1.83;;
16837;SDS011;19510;54.486;9.046;2024-03-25T04:15:02;5.80;;;1.50;;
16837;SDS011;19510;54.486;9.046;2024-03-25T04:17:28;8.32;;;1.40;;
16837;SDS011;19510;54.486;9.046;2024-03-25T04:19:54;10.48;;;1.85;;
16837;SDS011;19510;54.486;9.046;2024-03-25T04:29:35;5.33;;;1.80;;
16837;SDS011;19510;54.486;9.046;2024-03-25T04:49:13;5.80;;;1.30;;
16837;SDS011;19510;54.486;9.046;2024-03-25T04:54:59;11.00;;;1.40;;
16837;SDS011;19510;54.486;9.046;2024-03-25T04:58:09;4.63;;;1.20;;
16837;SDS011;19510;54.486;9.046;2024-03-25T05:00:38;2.70;;;1.00;;
16837;SDS011;19510;54.486;9.046;2024-03-25T05:03:56;5.37;;;1.43;;
16837;SDS011;19510;54.486;9.046;2024-03-25T09:42:55;5.63;;;1.20;;
16837;SDS011;19510;54.486;9.046;2024-03-25T09:45:21;4.10;;;1.20;;
16837;SDS011;19510;54.486;9.046;2024-03-25T17:49:15;7.50;;;1.52;;
16837;SDS011;19510;54.486;9.046;2024-03-25T17:51:49;5.28;;;1.33;;
16837;SDS011;19510;54.486;9.046;2024-03-25T18:12:58;4.13;;;1.20;;
16837;SDS011;19510;54.486;9.046;2024-03-25T18:15:24;2.92;;;1.10;;
16837;SDS011;19510;54.486;9.046;2024-03-25T18:17:50;5.93;;;1.85;;
16837;SDS011;19510;54.486;9.046;2024-03-25T18:20:16;6.55;;;2.30;;
16837;SDS011;19510;54.486;9.046;2024-03-25T18:22:42;9.05;;;1.95;;
16837;SDS011;19510;54.486;9.046;2024-03-25T18:25:08;8.40;;;2.17;;
16837;SDS011;19510;54.486;9.046;2024-03-25T18:27:33;6.97;;;2.33;;
16837;SDS011;19510;54.486;9.046;2024-03-25T18:30:00;11.23;;;2.55;;
16837;SDS011;19510;54.486;9.046;2024-03-25T18:32:44;5.07;;;1.77;;
16837;SDS011;19510;54.486;9.046;2024-03-25T18:35:11;9.35;;;2.00;;
16837;SDS011;19510;54.486;9.046;2024-03-25T18:37:37;8.20;;;2.38;;
16837;SDS011;19510;54.486;9.046;2024-03-25T18:40:03;7.90;;;1.80;;
16837;SDS011;19510;54.486;9.046;2024-03-25T18:48:20;4.25;;;2.05;;
16837;SDS011;19510;54.486;9.046;2024-03-25T18:50:51;6.65;;;2.35;;
16837;SDS011;19510;54.486;9.046;2024-03-25T18:53:17;5.25;;;1.77;;
16837;SDS011;19510;54.486;9.046;2024-03-25T18:55:42;4.05;;;1.90;;
16837;SDS011;19510;54.486;9.046;2024-03-25T18:58:08;4.55;;;1.67;;
16837;SDS011;19510;54.486;9.046;2024-03-25T19:00:40;7.45;;;1.90;;
16837;SDS011;19510;54.486;9.046;2024-03-25T19:06:16;7.05;;;2.10;;
16837;SDS011;19510;54.486;9.046;2024-03-25T19:08:42;8.07;;;2.53;;
16837;SDS011;19510;54.486;9.046;2024-03-25T19:11:08;14.43;;;2.45;;
16837;SDS011;19510;54.486;9.046;2024-03-25T19:13:34;3.60;;;1.80;;
16837;SDS011;19510;54.486;9.046;2024-03-25T19:16:00;9.50;;;2.50;;
16837;SDS011;19510;54.486;9.046;2024-03-25T19:18:28;7.13;;;2.38;;
16837;SDS011;19510;54.486;9.046;2024-03-25T19:20:53;8.32;;;2.10;;
16837;SDS011;19510;54.486;9.046;2024-03-25T19:23:19;10.85;;;2.17;;
16837;SDS011;19510;54.486;9.046;2024-03-25T19:25:45;4.65;;;1.67;;
16837;SDS011;19510;54.486;9.046;2024-03-25T19:28:11;5.85;;;2.22;;
16837;SDS011;19510;54.486;9.046;2024-03-25T19:30:37;3.38;;;2.03;;
16837;SDS011;19510;54.486;9.046;2024-03-25T19:33:02;5.18;;;2.45;;
16837;SDS011;19510;54.486;9.046;2024-03-25T19:35:34;7.60;;;2.63;;
16837;SDS011;19510;54.486;9.046;2024-03-25T19:38:00;5.25;;;2.08;;
16837;SDS011;19510;54.486;9.046;2024-03-25T19:40:28;3.83;;;2.00;;
16837;SDS011;19510;54.486;9.046;2024-03-25T19:42:54;7.93;;;2.70;;
16837;SDS011;19510;54.486;9.046;2024-03-25T19:45:20;5.65;;;2.25;;
16837;SDS011;19510;54.486;9.046;2024-03-25T19:47:46;7.22;;;2.30;;
16837;SDS011;19510;54.486;9.046;2024-03-25T19:50:11;3.08;;;2.33;;
16837;SDS011;19510;54.486;9.046;2024-03-25T19:52:37;5.72;;;2.30;;
16837;SDS011;19510;54.486;9.046;2024-03-25T19:55:03;7.57;;;2.17;;
16837;SDS011;19510;54.486;9.046;2024-03-25T19:57:29;7.78;;;1.83;;
16837;SDS011;19510;54.486;9.046;2024-03-25T19:59:55;4.55;;;1.70;;
16837;SDS011;19510;54.486;9.046;2024-03-25T20:02:21;7.30;;;2.42;;
16837;SDS011;19510;54.486;9.046;2024-03-25T20:04:47;6.30;;;2.10;;
16837;SDS011;19510;54.486;9.046;2024-03-25T20:07:14;6.25;;;2.05;;
16837;SDS011;19510;54.486;9.046;2024-03-25T20:09:40;5.15;;;2.05;;
16837;SDS011;19510;54.486;9.046;2024-03-25T20:12:07;7.63;;;2.05;;
16837;SDS011;19510;54.486;9.046;2024-03-25T20:14:33;5.82;;;2.08;;
16837;SDS011;19510;54.486;9.046;2024-03-25T20:16:58;6.63;;;2.03;;
16837;SDS011;19510;54.486;9.046;2024-03-25T20:19:24;6.40;;;2.27;;
16837;SDS011;19510;54.486;9.046;2024-03-25T20:21:52;9.57;;;2.72;;
16837;SDS011;19510;54.486;9.046;2024-03-25T20:24:18;7.57;;;2.40;;
16837;SDS011;19510;54.486;9.046;2024-03-25T20:26:44;9.32;;;3.25;;
16837;SDS011;19510;54.486;9.046;2024-03-25T20:29:09;13.70;;;3.38;;
16837;SDS011;19510;54.486;9.046;2024-03-25T20:31:35;10.18;;;3.33;;
16837;SDS011;19510;54.486;9.046;2024-03-25T20:34:01;9.23;;;3.90;;
16837;SDS011;19510;54.486;9.046;2024-03-25T20:36:30;11.07;;;4.13;;
16837;SDS011;19510;54.486;9.046;2024-03-25T20:38:56;12.03;;;4.33;;
16837;SDS011;19510;54.486;9.046;2024-03-25T20:41:22;10.77;;;4.55;;
16837;SDS011;19510;54.486;9.046;2024-03-25T20:43:48;11.77;;;3.95;;
16837;SDS011;19510;54.486;9.046;2024-03-25T20:46:13;8.40;;;4.07;;
16837;SDS011;19510;54.486;9.046;2024-03-25T20:48:41;10.37;;;4.57;;
16837;SDS011;19510;54.486;9.046;2024-03-25T20:51:07;8.35;;;4.32;;
16837;SDS011;19510;54.486;9.046;2024-03-25T20:53:33;13.70;;;5.20;;
16837;SDS011;19510;54.486;9.046;2024-03-25T20:55:59;15.47;;;5.43;;
16837;SDS011;19510;54.486;9.046;2024-03-25T20:58:25;11.03;;;4.73;;
16837;SDS011;19510;54.486;9.046;2024-03-25T21:00:50;10.40;;;5.10;;
16837;SDS011;19510;54.486;9.046;2024-03-25T21:03:16;10.93;;;5.07;;
16837;SDS011;19510;54.486;9.046;2024-03-25T21:05:52;10.93;;;4.80;;
16837;SDS011;19510;54.486;9.046;2024-03-25T21:08:20;10.63;;;4.43;;
16837;SDS011;19510;54.486;9.046;2024-03-25T21:10:46;9.90;;;4.00;;
16837;SDS011;19510;54.486;9.046;2024-03-25T21:13:11;10.60;;;3.70;;
16837;SDS011;19510;54.486;9.046;2024-03-25T21:15:37;8.27;;;3.27;;
16837;SDS011;19510;54.486;9.046;2024-03-25T21:18:03;12.00;;;3.60;;
16837;SDS011;19510;54.486;9.046;2024-03-25T21:20:29;7.93;;;3.33;;
16837;SDS011;19510;54.486;9.046;2024-03-25T21:22:54;6.23;;;2.90;;
16837;SDS011;19510;54.486;9.046;2024-03-25T21:25:20;12.10;;;3.10;;
16837;SDS011;19510;54.486;9.046;2024-03-25T21:27:46;5.67;;;3.37;;
16837;SDS011;19510;54.486;9.046;2024-03-25T21:30:12;14.47;;;3.50;;
16837;SDS011;19510;54.486;9.046;2024-03-25T21:32:38;8.87;;;3.70;;
16837;SDS011;19510;54.486;9.046;2024-03-25T21:35:04;7.63;;;3.77;;
16837;SDS011;19510;54.486;9.046;2024-03-25T21:37:30;7.90;;;3.83;;
16837;SDS011;19510;54.486;9.046;2024-03-25T21:39:56;14.27;;;4.60;;
16837;SDS011;19510;54.486;9.046;2024-03-25T21:42:25;9.87;;;4.27;;
16837;SDS011;19510;54.486;9.046;2024-03-25T21:44:51;11.97;;;4.07;;
16837;SDS011;19510;54.486;9.046;2024-03-25T21:47:17;13.67;;;4.30;;
16837;SDS011;19510;54.486;9.046;2024-03-25T21:49:43;12.43;;;4.23;;
16837;SDS011;19510;54.486;9.046;2024-03-25T21:52:09;12.73;;;5.07;;
16837;SDS011;19510;54.486;9.046;2024-03-25T21:54:35;15.23;;;5.47;;
16837;SDS011;19510;54.486;9.046;2024-03-25T21:57:01;12.07;;;5.03;;
16837;SDS011;19510;54.486;9.046;2024-03-25T21:59:27;12.23;;;5.60;;
16837;SDS011;19510;54.486;9.046;2024-03-25T22:01:53;12.73;;;5.90;;
16837;SDS011;19510;54.486;9.046;2024-03-25T22:04:18;9.73;;;5.60;;
16837;SDS011;19510;54.486;9.046;2024-03-25T22:06:44;11.07;;;5.73;;
16837;SDS011;19510;54.486;9.046;2024-03-25T22:09:10;12.80;;;6.13;;
16837;SDS011;19510;54.486;9.046;2024-03-25T22:11:35;14.90;;;6.03;;
16837;SDS011;19510;54.486;9.046;2024-03-25T22:14:01;17.43;;;6.20;;
16837;SDS011;19510;54.486;9.046;2024-03-25T22:16:27;13.50;;;6.50;;
16837;SDS011;19510;54.486;9.046;2024-03-25T22:18:53;14.00;;;6.67;;
16837;SDS011;19510;54.486;9.046;2024-03-25T22:21:19;16.93;;;6.70;;
16837;SDS011;19510;54.486;9.046;2024-03-25T22:23:44;17.53;;;7.00;;
16837;SDS011;19510;54.486;9.046;2024-03-25T22:26:11;14.07;;;6.83;;
16837;SDS011;19510;54.486;9.046;2024-03-25T22:28:36;12.27;;;6.33;;
16837;SDS011;19510;54.486;9.046;2024-03-25T22:31:02;17.77;;;7.00;;
16837;SDS011;19510;54.486;9.046;2024-03-25T22:33:28;17.00;;;6.57;;
16837;SDS011;19510;54.486;9.046;2024-03-25T22:38:54;12.60;;;6.10;;
16837;SDS011;19510;54.486;9.046;2024-03-25T22:41:21;15.50;;;6.40;;
16837;SDS011;19510;54.486;9.046;2024-03-25T22:43:47;14.37;;;5.97;;
16837;SDS011;19510;54.486;9.046;2024-03-25T22:46:13;13.33;;;5.97;;
16837;SDS011;19510;54.486;9.046;2024-03-25T22:48:42;12.37;;;6.27;;
16837;SDS011;19510;54.486;9.046;2024-03-25T22:51:07;14.03;;;5.23;;
16837;SDS011;19510;54.486;9.046;2024-03-25T22:53:33;13.13;;;5.80;;
16837;SDS011;19510;54.486;9.046;2024-03-25T22:56:03;10.40;;;4.70;;
16837;SDS011;19510;54.486;9.046;2024-03-25T22:58:39;13.20;;;4.63;;
16837;SDS011;19510;54.486;9.046;2024-03-25T23:03:31;10.80;;;4.80;;
16837;SDS011;19510;54.486;9.046;2024-03-25T23:05:58;14.60;;;4.17;;
16837;SDS011;19510;54.486;9.046;2024-03-25T23:08:25;7.57;;;4.30;;
16837;SDS011;19510;54.486;9.046;2024-03-25T23:10:53;9.70;;;4.23;;
16837;SDS011;19510;54.486;9.046;2024-03-25T23:13:23;11.70;;;4.60;;
16837;SDS011;19510;54.486;9.046;2024-03-25T23:15:49;7.97;;;3.90;;
16837;SDS011;19510;54.486;9.046;2024-03-25T23:18:15;11.90;;;5.10;;
16837;SDS011;19510;54.486;9.046;2024-03-25T23:20:42;9.93;;;4.40;;
16837;SDS011;19510;54.486;9.046;2024-03-25T23:23:09;9.80;;;4.10;;
16837;SDS011;19510;54.486;9.046;2024-03-25T23:25:37;11.63;;;4.27;;
16837;SDS011;19510;54.486;9.046;2024-03-25T23:28:03;9.07;;;4.17;;
16837;SDS011;19510;54.486;9.046;2024-03-25T23:30:29;7.77;;;3.87;;
16837;SDS011;19510;54.486;9.046;2024-03-25T23:32:56;6.33;;;3.37;;
16837;SDS011;19510;54.486;9.046;2024-03-25T23:35:22;10.77;;;3.60;;
16837;SDS011;19510;54.486;9.046;2024-03-25T23:37:48;9.40;;;3.47;;
16837;SDS011;19510;54.486;9.046;2024-03-25T23:40:14;9.40;;;3.00;;
16837;SDS011;19510;54.486;9.046;2024-03-25T23:42:39;5.87;;;2.87;;
16837;SDS011;19510;54.486;9.046;2024-03-25T23:45:07;5.93;;;2.57;;
16837;SDS011;19510;54.486;9.046;2024-03-25T23:47:33;9.27;;;3.13;;
16837;SDS011;19510;54.486;9.046;2024-03-25T23:50:02;9.23;;;3.13;;
16837;SDS011;19510;54.486;9.046;2024-03-25T23:52:32;6.00;;;2.70;;
16837;SDS011;19510;54.486;9.046;2024-03-25T23:54:59;5.87;;;2.43;;
16837;SDS011;19510;54.486;9.046;2024-03-25T23:57:25;8.90;;;2.17;;
16837;SDS011;19510;54.486;9.046;2024-03-25T23:59:51;10.20;;;2.33;;
